createdAt,value
2022-11-30T00:00:55.522Z,99332.38
2022-11-30T00:06:09.526Z,99344.59
2022-11-30T00:11:17.854Z,99335.13
2022-11-30T00:16:27.602Z,99328.97
2022-11-30T00:21:32.752Z,99335.97
2022-11-30T00:26:37.787Z,99336.69
2022-11-30T00:31:45.380Z,99346.22
2022-11-30T00:36:50.304Z,99352.56
2022-11-30T00:41:55.333Z,99355.75
2022-11-30T00:47:03.024Z,99338.06
2022-11-30T00:52:08.605Z,99344.75
2022-11-30T00:57:14.157Z,99336.69
2022-11-30T01:02:21.764Z,99337.59
2022-11-30T01:07:26.807Z,99340.78
2022-11-30T01:12:31.681Z,99332.06
2022-11-30T01:17:39.465Z,99336.06
2022-11-30T01:22:45.053Z,99333.91
2022-11-30T01:27:51.966Z,99342.84
2022-11-30T01:33:04.083Z,99338.69
2022-11-30T01:38:08.960Z,99339.81
2022-11-30T01:43:15.041Z,99339.66
2022-11-30T01:48:22.626Z,99347.66
2022-11-30T01:53:27.821Z,99344.28
2022-11-30T01:58:35.233Z,99341.25
2022-11-30T02:03:49.170Z,99346.53
2022-11-30T02:08:55.059Z,99348.13
2022-11-30T02:14:15.133Z,99342.38
2022-11-30T02:19:54.446Z,99348.81
2022-11-30T02:25:12.454Z,99355.00
2022-11-30T02:30:24.173Z,99359.13
2022-11-30T02:35:33.714Z,99361.13
2022-11-30T02:40:39.012Z,99361.69
2022-11-30T02:45:58.858Z,99363.00
2022-11-30T02:51:08.217Z,99350.00
2022-11-30T02:56:13.444Z,99355.94
2022-11-30T03:01:21.224Z,99351.75
2022-11-30T03:06:26.140Z,99365.69
2022-11-30T03:11:32.279Z,99370.38
2022-11-30T03:16:39.850Z,99368.91
2022-11-30T03:21:45.001Z,99376.00
2022-11-30T03:26:50.164Z,99382.66
2022-11-30T03:31:57.892Z,99387.41
2022-11-30T03:37:02.833Z,99385.41
2022-11-30T03:42:09.792Z,99387.56
2022-11-30T03:47:19.849Z,99391.22
2022-11-30T03:52:25.162Z,99390.19
2022-11-30T03:57:30.212Z,99395.69
2022-11-30T04:02:43.070Z,99387.34
2022-11-30T04:07:49.605Z,99393.63
2022-11-30T04:12:54.647Z,99390.88
2022-11-30T04:18:02.416Z,99394.88
2022-11-30T04:23:07.587Z,99395.00
2022-11-30T04:28:13.109Z,99394.88
2022-11-30T04:33:20.718Z,99390.66
2022-11-30T04:38:26.667Z,99401.97
2022-11-30T04:43:31.537Z,99388.72
2022-11-30T04:48:41.019Z,99389.41
2022-11-30T04:53:46.294Z,99401.72
2022-11-30T04:58:51.066Z,99410.75
2022-11-30T05:04:00.336Z,99406.19
2022-11-30T05:09:05.485Z,99407.91
2022-11-30T05:14:11.591Z,99425.00
2022-11-30T05:19:19.301Z,99425.34
2022-11-30T05:24:24.273Z,99436.41
2022-11-30T05:29:29.493Z,99434.03
2022-11-30T05:34:49.632Z,99434.34
2022-11-30T05:39:55.742Z,99445.31
2022-11-30T05:45:02.148Z,99448.81
2022-11-30T05:50:11.419Z,99445.84
2022-11-30T05:55:16.480Z,99447.53
2022-11-30T06:00:25.224Z,99449.16
2022-11-30T06:05:32.787Z,99451.75
2022-11-30T06:10:38.768Z,99453.59
2022-11-30T06:15:45.186Z,99451.19
2022-11-30T06:20:55.638Z,99452.00
2022-11-30T06:26:00.591Z,99457.13
2022-11-30T06:31:10.511Z,99464.63
2022-11-30T06:36:23.704Z,99469.28
2022-11-30T06:41:29.155Z,99465.19
2022-11-30T06:46:34.291Z,99473.25
2022-11-30T06:51:42.507Z,99476.19
2022-11-30T06:56:47.546Z,99482.34
2022-11-30T07:01:52.513Z,99487.56
2022-11-30T07:07:00.067Z,99498.41
2022-11-30T07:12:05.250Z,99494.72
2022-11-30T07:17:11.540Z,99500.16
2022-11-30T07:22:19.404Z,99505.78
2022-11-30T07:27:24.734Z,99512.97
2022-11-30T07:32:29.762Z,99521.03
2022-11-30T07:37:37.893Z,99508.91
2022-11-30T07:42:42.902Z,99511.72
2022-11-30T07:47:49.312Z,99521.44
2022-11-30T07:52:56.905Z,99519.81
2022-11-30T07:58:04.034Z,99509.63
2022-11-30T08:03:09.866Z,99512.16
2022-11-30T08:08:18.100Z,99513.03
2022-11-30T08:13:27.247Z,99512.44
2022-11-30T08:18:32.759Z,99513.34
2022-11-30T08:23:43.364Z,99510.72
2022-11-30T08:28:52.995Z,99509.13
2022-11-30T08:33:59.494Z,99518.84
2022-11-30T08:39:10.915Z,99533.13
2022-11-30T08:44:15.946Z,99528.44
2022-11-30T08:49:24.776Z,99542.63
2022-11-30T08:54:35.168Z,99539.31
2022-11-30T08:59:41.662Z,99554.25
2022-11-30T09:04:51.436Z,99556.19
2022-11-30T09:10:00.478Z,99557.56
2022-11-30T09:15:08.045Z,99560.41
2022-11-30T09:20:14.388Z,99553.31
2022-11-30T09:25:22.214Z,99557.88
2022-11-30T09:30:28.462Z,99554.19
2022-11-30T09:35:33.474Z,99553.28
2022-11-30T09:40:43.152Z,99558.91
2022-11-30T09:45:56.092Z,99551.19
2022-11-30T09:51:10.503Z,99554.03
2022-11-30T09:56:26.529Z,99553.94
2022-11-30T10:01:37.575Z,99551.75
2022-11-30T10:06:52.481Z,99559.16
2022-11-30T10:12:08.537Z,99559.69
2022-11-30T10:17:28.756Z,99562.25
2022-11-30T10:22:47.373Z,99551.66
2022-11-30T10:27:56.668Z,99553.44
2022-11-30T10:33:06.411Z,99548.03
2022-11-30T10:38:18.116Z,99564.50
2022-11-30T10:43:51.908Z,99547.06
2022-11-30T10:49:05.997Z,99544.19
2022-11-30T10:54:19.818Z,99546.75
2022-11-30T10:59:32.292Z,99543.69
2022-11-30T11:04:37.341Z,99545.75
2022-11-30T11:09:47.199Z,99543.66
2022-11-30T11:15:12.229Z,99538.88
2022-11-30T11:20:35.981Z,99547.00
2022-11-30T11:25:43.285Z,99545.41
2022-11-30T11:30:51.532Z,99540.06
2022-11-30T11:35:59.351Z,99538.88
2022-11-30T11:41:06.728Z,99546.31
2022-11-30T11:46:17.995Z,99532.31
2022-11-30T11:51:33.065Z,99529.63
2022-11-30T11:56:39.982Z,99530.50
2022-11-30T12:02:02.537Z,99526.31
2022-11-30T12:07:18.644Z,99525.75
2022-11-30T12:12:26.661Z,99534.44
2022-11-30T12:17:51.094Z,99520.97
2022-11-30T12:23:16.111Z,99532.25
2022-11-30T12:28:55.061Z,99528.94
2022-11-30T12:34:22.533Z,99525.34
2022-11-30T12:39:38.437Z,99530.28
2022-11-30T12:44:58.939Z,99531.84
2022-11-30T12:50:27.071Z,99531.38
2022-11-30T12:55:39.170Z,99529.53
2022-11-30T13:00:57.716Z,99524.94
2022-11-30T13:06:13.022Z,99528.94
2022-11-30T13:11:22.906Z,99523.84
2022-11-30T13:16:31.370Z,99519.78
2022-11-30T13:21:47.642Z,99528.03
2022-11-30T13:26:58.423Z,99528.06
2022-11-30T13:32:27.485Z,99531.44
2022-11-30T13:37:39.173Z,99530.69
2022-11-30T13:42:51.249Z,99536.91
2022-11-30T13:47:58.899Z,99531.84
2022-11-30T13:53:28.057Z,99533.56
2022-11-30T13:58:36.003Z,99538.63
2022-11-30T14:03:49.021Z,99551.50
2022-11-30T14:08:59.543Z,99550.91
2022-11-30T14:14:36.933Z,99545.75
2022-11-30T14:19:52.846Z,99549.81
2022-11-30T14:24:59.119Z,99553.38
2022-11-30T14:30:06.563Z,99558.72
2022-11-30T14:35:20.426Z,99554.69
2022-11-30T14:40:27.800Z,99557.34
2022-11-30T14:45:36.249Z,99554.56
2022-11-30T14:50:48.417Z,99556.28
2022-11-30T14:55:59.176Z,99553.06
2022-11-30T15:01:10.678Z,99557.28
2022-11-30T15:06:22.268Z,99559.13
2022-11-30T15:11:27.724Z,99558.66
2022-11-30T15:16:33.367Z,99565.66
2022-11-30T15:21:41.021Z,99568.94
2022-11-30T15:26:52.468Z,99562.66
2022-11-30T15:32:00.478Z,99571.00
2022-11-30T15:37:10.404Z,99569.56
2022-11-30T15:42:24.246Z,99574.13
2022-11-30T15:47:35.196Z,99574.47
2022-11-30T15:52:47.359Z,99568.56
2022-11-30T15:58:04.468Z,99572.16
2022-11-30T16:03:13.809Z,99574.94
2022-11-30T16:08:21.617Z,99581.13
2022-11-30T16:13:33.524Z,99579.22
2022-11-30T16:18:38.674Z,99578.56
2022-11-30T16:23:46.987Z,99573.41
2022-11-30T16:28:55.575Z,99585.03
2022-11-30T16:34:00.720Z,99583.09
2022-11-30T16:39:12.799Z,99584.97
2022-11-30T16:44:19.512Z,99589.56
2022-11-30T16:49:24.877Z,99590.38
2022-11-30T16:54:32.606Z,99593.56
2022-11-30T16:59:37.878Z,99591.06
2022-11-30T17:04:43.564Z,99599.63
2022-11-30T17:09:55.065Z,99593.44
2022-11-30T17:15:00.071Z,99611.16
2022-11-30T17:20:05.116Z,99619.50
2022-11-30T17:25:18.503Z,99620.16
2022-11-30T17:30:24.585Z,99625.03
2022-11-30T17:35:30.399Z,99628.19
2022-11-30T17:40:42.211Z,99630.56
2022-11-30T17:45:47.175Z,99646.06
2022-11-30T17:50:54.493Z,99654.69
2022-11-30T17:56:10.907Z,99651.88
2022-11-30T18:01:22.706Z,99652.97
2022-11-30T18:06:27.957Z,99656.13
2022-11-30T18:11:38.971Z,99666.78
2022-11-30T18:16:43.939Z,99664.09
2022-11-30T18:21:49.027Z,99673.97
2022-11-30T18:26:57.020Z,99668.38
2022-11-30T18:32:03.222Z,99684.06
2022-11-30T18:37:08.714Z,99678.16
2022-11-30T18:42:18.280Z,99679.47
2022-11-30T18:47:23.444Z,99688.34
2022-11-30T18:52:33.400Z,99698.69
2022-11-30T18:57:41.969Z,99692.06
2022-11-30T19:02:53.111Z,99695.66
2022-11-30T19:08:00.487Z,99713.00
2022-11-30T19:13:09.545Z,99697.28
2022-11-30T19:18:16.472Z,99690.06
2022-11-30T19:23:23.714Z,99703.53
2022-11-30T19:28:36.767Z,99709.69
2022-11-30T19:33:43.644Z,99713.97
2022-11-30T19:38:51.682Z,99710.03
2022-11-30T19:44:04.508Z,99706.03
2022-11-30T19:49:15.841Z,99708.13
2022-11-30T19:54:22.314Z,99705.81
2022-11-30T19:59:30.517Z,99725.38
2022-11-30T20:04:35.679Z,99725.91
2022-11-30T20:09:41.223Z,99727.22
2022-11-30T20:14:51.035Z,99738.59
2022-11-30T20:19:56.281Z,99733.66
2022-11-30T20:25:01.652Z,99736.97
2022-11-30T20:30:11.469Z,99735.41
2022-11-30T20:35:19.246Z,99727.31
2022-11-30T20:40:31.897Z,99731.25
2022-11-30T20:45:41.904Z,99750.88
2022-11-30T20:51:01.134Z,99746.81
2022-11-30T20:56:19.237Z,99747.91
2022-11-30T21:01:27.481Z,99748.53
2022-11-30T21:06:36.542Z,99758.94
2022-11-30T21:11:44.327Z,99743.84
2022-11-30T21:16:52.406Z,99744.66
2022-11-30T21:21:59.906Z,99746.06
2022-11-30T21:27:07.419Z,99758.50
2022-11-30T21:32:15.548Z,99755.09
2022-11-30T21:37:20.713Z,99756.34
2022-11-30T21:42:27.656Z,99750.25
2022-11-30T21:47:36.120Z,99765.38
2022-11-30T21:52:42.975Z,99770.63
2022-11-30T21:57:48.002Z,99767.41
2022-11-30T22:02:55.830Z,99772.22
2022-11-30T22:08:01.904Z,99774.56
2022-11-30T22:13:07.229Z,99756.84
2022-11-30T22:18:15.004Z,99766.56
2022-11-30T22:23:20.041Z,99763.50
2022-11-30T22:28:25.011Z,99770.13
2022-11-30T22:33:34.914Z,99772.84
2022-11-30T22:38:40.261Z,99776.25
2022-11-30T22:43:46.517Z,99759.72
2022-11-30T22:48:55.833Z,99762.34
2022-11-30T22:54:01.889Z,99760.91
2022-11-30T22:59:09.961Z,99776.69
2022-11-30T23:04:20.815Z,99763.47
2022-11-30T23:09:28.954Z,99755.41
2022-11-30T23:14:34.248Z,99752.72
2022-11-30T23:19:41.847Z,99758.63
2022-11-30T23:24:48.744Z,99759.59
2022-11-30T23:29:53.768Z,99769.25
2022-11-30T23:35:02.848Z,99768.66
2022-11-30T23:40:10.868Z,99759.84
2022-11-30T23:45:18.653Z,99746.56
2022-11-30T23:50:26.503Z,99744.19
2022-11-30T23:55:33.770Z,99746.19
